Station: Minlaton Airport

  Atmospheric Gas Attenuation - ITU Rec 676-11   --------------- db/100km ---------------
Date Time Temp RH % AH g/m3 Dew Point Wind Direction Speed kph Gust kph Barometer mB Rainfall Since 9am 24GHz 47GHz 76GHz 122GHz 134GHz 241GHz
21 17:40 14.9 70 8.92 9.5 33 41 1005.9 20.2 25.8 40.2 105.6 100.6 346.4
21 17:30 14.5 70 8.71 9.1 33 44 1005.8 19.8 25.6 39.6 103.9 98.3 338.5
21 17:20 14.5 72 8.96 9.5 35 41 1005.7 20.3 26.0 40.5 106.6 101.6 349.9
21 17:10 14.5 71 8.83 9.3 33 39 1005.7 20.1 25.8 40.0 105.2 99.9 344.0
21 17:00 14.3 71 8.72 9.1 37 48 1005.6 19.8 25.7 39.7 104.3 98.7 339.7
21 16:50 14.1 74 8.98 9.5 41 44 1005.4 20.4 26.1 40.8 107.3 102.4 352.6
21 16:40 13.7 78 9.24 9.9 37 43 1005.4 21.0 26.7 42.1 110.7 106.4 366.6
21 16:30 13.6 76 8.94 9.5 39 56 1005.3 20.3 26.2 40.9 107.5 102.5 352.9
21 16:20 14.1 73 8.86 9.3 39 46 1005.1 20.1 25.9 40.3 106.0 100.8 346.9
21 16:10 14.7 73 9.19 9.9 43 56 1005.2 20.8 26.3 41.3 108.7 104.4 359.5
21 16:00 16.3 63 8.74 9.3 41 57 1005 19.8 25.1 38.8 101.8 96.4 332.0
21 15:50 17.4 59 8.74 9.3 43 50 1004.9 19.7 24.8 38.2 100.4 95.1 327.4
21 15:40 17.6 59 8.85 9.5 41 48 1004.8 19.9 24.9 38.5 101.3 96.2 331.4
21 15:30 18.4 58 9.12 10 33 44 1004.7 20.5 25.1 39.2 103.0 98.6 339.8
21 15:20 17.2 59 8.64 9.1 35 41 1004.6 19.5 24.7 37.9 99.6 94.0 323.7
21 15:10 18.2 60 9.33 10.3 28 33 1004.6 20.9 25.5 40.1 105.4 101.5 350.0
21 15:00 17.6 58 8.7 9.2 39 52 1004.6 19.6 24.7 38.0 99.7 94.3 324.7
21 14:50 17.9 58 8.86 9.5 35 41 1004.6 20.0 24.8 38.4 101.0 95.9 330.5
21 14:40 18.1 57 8.81 9.5 37 43 1004.7 19.8 24.7 38.1 100.2 95.1 327.5
21 14:30 18 53 8.14 8.3 35 50 1004.7 18.4 23.7 35.7 93.6 86.9 298.9
21 14:20 17 62 8.97 9.7 30 37 1004.7 20.2 25.2 39.3 103.2 98.5 339.2
21 14:10 17.3 60 8.84 9.5 30 33 1004.6 19.9 25.0 38.6 101.5 96.4 332.1
21 14:00 17.2 61 8.93 9.6 33 43 1004.7 20.1 25.1 39.0 102.6 97.7 336.6
21 13:50 17.5 59 8.8 9.4 33 41 1004.8 19.8 24.8 38.4 100.9 95.7 329.6
21 13:40 17.5 59 8.8 9.4 32 43 1004.8 19.8 24.8 38.4 100.9 95.7 329.6
21 13:30 17.8 54 8.2 8.4 35 46 1004.8 18.6 23.9 36.0 94.5 87.9 302.3
21 13:20 18.4 53 8.34 8.7 37 46 1004.8 18.8 23.9 36.2 95.1 88.9 306.0
21 13:10 18.4 52 8.18 8.4 37 41 1004.8 18.5 23.7 35.7 93.6 87.0 299.2
21 13:00 18.8 57 9.18 10.1 35 50 1004.8 20.6 25.1 39.2 103.1 98.8 340.8
21 12:50 18.9 56 9.07 9.9 37 44 1004.8 20.4 24.9 38.7 101.8 97.3 335.5
21 12:40 18.7 59 9.45 10.5 32 41 1004.9 21.2 25.5 40.3 106.0 102.4 353.1
21 12:30 18.9 57 9.23 10.2 35 46 1004.9 20.7 25.1 39.4 103.5 99.4 342.6
21 12:20 18.9 57 9.23 10.2 35 41 1004.8 20.7 25.1 39.4 103.5 99.3 342.5
21 12:10 18.5 55 8.7 9.3 44 54 1004.8 19.6 24.4 37.5 98.6 93.2 321.1
21 12:00 18 59 9.06 9.9 43 57 1004.9 20.4 25.1 39.2 102.9 98.4 339.0
21 11:50 18.1 57 8.81 9.5 44 54 1004.9 19.8 24.7 38.2 100.2 95.1 327.6
21 11:40 17.9 57 8.7 9.3 44 57 1004.9 19.6 24.6 37.8 99.4 94.0 323.6
21 11:30 17.9 56 8.55 9 46 65 1004.9 19.3 24.4 37.3 97.8 92.1 317.0
21 11:20 17.8 55 8.35 8.6 46 54 1004.9 18.9 24.1 36.6 96.0 89.7 308.8
21 11:10 18.5 52 8.23 8.5 43 56 1004.8 18.6 23.7 35.8 93.9 87.5 300.9
21 11:00 18.4 52 8.18 8.4 44 59 1004.7 18.5 23.7 35.7 93.5 87.0 299.2
21 10:50 18 50 7.68 7.4 46 56 1004.7 17.5 23.0 34.0 89.1 81.4 279.5
21 10:40 17.7 49 7.39 6.9 44 56 1004.7 16.9 22.7 33.1 86.6 78.2 268.3
21 10:30 17.4 48 7.11 6.3 48 63 1004.6 16.3 22.3 32.2 84.2 75.2 257.6
21 10:20 17.5 49 7.3 6.7 44 54 1004.6 16.7 22.6 32.8 86.0 77.3 265.2
21 10:10 17.2 47 6.88 5.8 56 63 1004.5 15.8 22.1 31.4 82.2 72.6 248.7
21 10:00 16.9 50 7.19 6.4 46 63 1004.4 16.5 22.6 32.7 85.5 76.6 262.5
21 09:50 16.7 50 7.11 6.2 44 52 1004.3 16.3 22.5 32.4 85.0 75.8 259.8
21 09:40 16.6 48 6.78 5.6 44 57 1004.2 15.6 22.0 31.3 81.9 72.0 246.4
21 09:30 16.4 47 6.56 5.1 46 65 1004.4 15.1 21.8 30.6 80.0 69.6 237.9
21 09:20 16.2 45 6.21 4.3 52 61 1004.3 14.4 21.3 29.4 76.9 65.7 224.2
21 09:10 16.4 47 6.56 5.1 48 59 1004.3 15.1 21.8 30.6 80.0 69.6 237.9
21 09:00 16 48 6.54 5 46 63 1004.1 15.1 21.8 30.7 80.2 69.7 238.2
21 08:50 16 49 6.68 5.3 50 59 1004.4 15.4 22.0 31.2 81.5 71.4 244.1
21 08:40 15.8 50 6.73 5.4 41 50 1004.3 15.5 22.2 31.4 82.2 72.1 246.8
21 08:30 15.4 53 6.96 5.9 43 63 1004.1 16.0 22.6 32.4 84.8 75.2 257.6
21 08:20 14.8 54 6.84 5.6 37 44 1004.2 15.8 22.6 32.2 84.3 74.4 254.5
21 08:10 14.3 56 6.88 5.7 35 43 1004 15.9 22.7 32.5 85.2 75.3 257.7
21 08:00 13.8 58 6.91 5.7 35 48 1004 16.0 22.9 32.9 86.1 76.2 260.7
21 07:50 13 62 7.03 5.9 30 41 1004.1 16.3 23.3 33.6 88.1 78.4 268.5
21 07:40 11.9 65 6.88 5.5 32 37 1004.2 16.0 23.4 33.5 87.8 77.6 265.7
21 07:30 11.3 66 6.73 5.2 30 41 1004.3 15.7 23.3 33.2 87.0 76.4 261.0
21 07:20 10.9 68 6.77 5.2 26 35 1004.3 15.8 23.5 33.5 87.8 77.3 264.1
21 07:10 10.4 69 6.65 5 32 41 1004.3 15.6 23.4 33.3 87.1 76.2 260.4
21 07:00 9.9 73 6.82 5.3 28 35 1004.3 16.0 23.8 34.2 89.5 78.9 269.8
21 06:50 9.2 76 6.79 5.2 26 32 1004.4 15.9 23.9 34.3 90.0 79.2 270.8
21 06:40 8.9 77 6.75 5.1 26 33 1004.4 15.8 24.0 34.3 89.9 79.0 270.0
21 06:30 8.6 81 6.96 5.5 24 30 1004.5 16.3 24.4 35.3 92.5 82.1 280.8
21 06:20 8.1 83 6.91 5.4 24 28 1004.5 16.2 24.4 35.3 92.5 82.0 280.2
21 06:10 7.9 83 6.82 5.2 24 28 1004.6 16.0 24.3 35.0 91.8 81.0 276.8
21 06:00 7.8 83 6.78 5.1 24 30 1004.7 16.0 24.3 34.9 91.5 80.6 275.3
21 05:50 7.8 83 6.78 5.1 24 28 1004.7 16.0 24.3 34.9 91.5 80.6 275.3
21 05:40 7.7 83 6.73 5 22 26 1004.6 15.9 24.3 34.8 91.1 80.0 273.3
21 05:30 7.8 81 6.61 4.7 20 22 1004.7 15.6 24.0 34.2 89.7 78.3 267.4
21 05:20 8.4 79 6.7 5 19 20 1004.7 15.8 24.0 34.3 90.0 78.9 269.5
21 05:10 9.7 78 7.19 6.1 17 19 1004.7 16.8 24.5 35.7 93.7 84.0 287.5
21 04:50 10 76 7.14 6 17 19 1004.8 16.6 24.3 35.4 92.8 83.0 284.1
21 04:40 10.2 74 7.04 5.8 17 17 1004.8 16.4 24.1 34.9 91.5 81.5 278.8
21 04:30 10.3 73 6.99 5.7 17 20 1004.9 16.3 24.0 34.7 90.9 80.7 276.2
21 04:20 10.8 71 7.02 5.8 19 20 1004.9 16.3 23.9 34.6 90.6 80.6 275.8
21 04:10 11 70 7.01 5.7 19 20 1005 16.3 23.8 34.5 90.3 80.3 274.7
21 04:00 11.1 69 6.95 5.6 19 26 1005.1 16.2 23.7 34.2 89.5 79.4 271.7
21 03:50 11.2 70 7.1 5.9 17 20 1005.2 16.5 23.9 34.7 91.0 81.2 278.1
21 03:40 11.5 68 7.02 5.8 19 20 1005.3 16.3 23.7 34.3 89.8 79.9 273.5
21 03:30 11.7 67 7.01 5.8 20 28 1005.3 16.3 23.7 34.2 89.5 79.6 272.4
21 03:20 11.7 68 7.11 6 22 28 1005.3 16.5 23.8 34.6 90.5 80.8 276.8
21 03:10 11.7 68 7.11 6 20 24 1005.3 16.5 23.8 34.6 90.5 80.8 276.8
21 03:00 11.9 68 7.2 6.2 24 35 1005.2 16.7 23.9 34.8 91.2 81.8 280.1
21 02:50 11.9 69 7.31 6.4 22 26 1005.2 16.9 24.1 35.2 92.4 83.2 285.1
21 02:40 12.2 67 7.23 6.3 26 30 1005.1 16.7 23.9 34.8 91.2 81.8 280.4
21 02:30 12.3 66 7.17 6.1 26 35 1005.3 16.6 23.7 34.5 90.5 81.0 277.4
21 02:20 12.4 66 7.21 6.2 26 30 1005.4 16.7 23.8 34.6 90.8 81.4 278.9
21 02:10 12.4 68 7.43 6.7 26 32 1005.6 17.2 24.1 35.5 93.1 84.2 288.8
21 02:00 12.3 67 7.28 6.4 24 32 1005.8 16.8 23.9 35.0 91.7 82.4 282.4
21 01:50 12.4 67 7.32 6.5 20 24 1006 16.9 24.0 35.1 92.0 82.8 283.9
21 01:40 12.8 67 7.51 6.8 19 20 1006.2 17.3 24.2 35.7 93.5 84.9 291.0
21 01:30 12.8 66 7.39 6.6 24 35 1006.6 17.1 24.0 35.2 92.3 83.4 285.8
21 01:20 12.6 65 7.19 6.2 22 26 1006.7 16.6 23.7 34.5 90.5 81.0 277.6
21 01:10 12.5 65 7.15 6.1 19 22 1006.8 16.6 23.7 34.4 90.2 80.6 276.2
21 01:00 12.7 64 7.13 6.1 24 33 1006.9 16.5 23.6 34.3 89.8 80.2 274.6

Last Refresh: 21-Sep-2020 17:51:28

Most of the information presented on this site is sourced from the Bureau of Meteorology.  Copyright in all material sourced from the Bureau of Meteorology resides with the Commonwealth of Australia.